Portada
METAR-TAF:

METAR-TAF

Aeroports :

Farmville Regional Airport

Farmville, Virgínia, Estats Units d'Amèrica

latitud: 37-21N, longitud: 078-26W, altitud: 125 m

Observació

L'informe es va fer fa 17 minuts, a les 12:35 UTC
Vent 3 kt del Sud/Sud-Oest
Temperatura 5°C
Humitat 93%
Pressió 1011 hPa
Visibilitat: 11.3 km
Cel cobert a una alçada de 500 ft

METAR: KFVX 191235Z AUTO 20003KT 7SM OVC005 05/04 A2984 RMK AO2 T00460043

Hora: 07:52 (12:52 UTC)


TAF: manca

Observacions i pronòstics meteorològics de més de 4000 aeroports (METAR i TAF).

Les estacions disponibles són els punts grocs i vermells al mapa.

Posi el ratolí al punt desitjat per veure el nom de l'estació.

Feu clic per veure les observacions i els pronòstics meteorològics.

Per canviar el mapa: feu clic els botons verds amb una creu de color negre per apropar; al botó verd amb un guió per allunyar la imatge; o en les fletxes verdes per a mapes adjacents.


METAR-TAF: